Terminal Aerodrome Forecast
Issued by NWS Rapid City, SD

Home | Current Version | Previous Version | Text Only | Print | Product List | Glossary On
Versions: 1 2 3 4 5 6 7 8 9 10 11 12 13 14 15 16 17 18 19 20 21 22 23 24 25 26 27 28 29 30 31 32
000
FTUS43 KUNR 202356 AAA
TAFRAP
TAF AMD
KRAP 202356Z 2100/2124 35020KT P6SM FEW100
     FM210030 01025G35KT P6SM SCT100
     FM210200 36015KT P6SM BKN100
     FM210800 36016G26KT P6SM -SHRA OVC020
     FM211300 36020G32KT 5SM -RA OVC006=

USA.gov is the U.S. government's official web portal to all federal, state and local government web resources and services.